Terminal Aerodrome Forecast
Issued by NWS

Home | Current Version | Previous Version | Text Only | Print | Product List | Glossary On
Versions: 1 2 3 4 5 6 7 8 9 10 11 12 13 14 15 16 17 18 19 20
000
FTUS45 KLKN 300520
TAFELY
TAF
KELY 300520Z 3006/0106 VRB06KT P6SM -SHRA SCT020 OVC030
     FM301200 36005KT 5SM -SNRA SCT015 OVC025
     FM301700 01015G25KT P6SM -SHRA SCT025 OVC035
     FM302000 01012G22KT P6SM -SHRA VCTS BKN035CB
     FM010200 02007KT P6SM -SHRA BKN040=

USA.gov is the U.S. government's official web portal to all federal, state and local government web resources and services.